createdAt,value
2022-09-23T00:01:24.256Z,99624.38
2022-09-23T00:03:52.163Z,99621.97
2022-09-23T00:06:23.448Z,99631.56
2022-09-23T00:08:52.311Z,99631.63
2022-09-23T00:11:21.758Z,99636.09
2022-09-23T00:13:51.467Z,99636.88
2022-09-23T00:16:22.546Z,99629.53
2022-09-23T00:18:50.889Z,99620.56
2022-09-23T00:21:20.312Z,99632.81
2022-09-23T00:23:49.960Z,99629.47
2022-09-23T00:26:20.508Z,99632.16
2022-09-23T00:28:49.638Z,99639.16
2022-09-23T00:31:19.968Z,99642.44
2022-09-23T00:33:48.123Z,99634.72
2022-09-23T00:36:17.168Z,99629.81
2022-09-23T00:38:46.242Z,99635.91
2022-09-23T00:41:16.332Z,99625.63
2022-09-23T00:43:46.917Z,99623.97
2022-09-23T00:46:19.461Z,99619.56
2022-09-23T00:48:49.653Z,99612.19
2022-09-23T00:51:21.900Z,99612.31
2022-09-23T00:53:52.548Z,99614.97
2022-09-23T00:56:25.034Z,99602.56
2022-09-23T00:58:53.744Z,99611.47
2022-09-23T01:01:22.410Z,99603.66
2022-09-23T01:03:51.257Z,99606.88
2022-09-23T01:06:19.199Z,99606.69
2022-09-23T01:08:48.518Z,99604.66
2022-09-23T01:11:31.463Z,99610.94
2022-09-23T01:14:15.426Z,99614.69
2022-09-23T01:16:50.801Z,99601.03
2022-09-23T01:19:38.972Z,99599.28
2022-09-23T01:22:14.973Z,99605.41
2022-09-23T01:24:55.209Z,99608.44
2022-09-23T01:27:48.730Z,99615.03
2022-09-23T01:30:44.292Z,99608.75
2022-09-23T01:33:16.907Z,99611.00
2022-09-23T01:35:58.851Z,99606.66
2022-09-23T01:38:36.977Z,99600.78
2022-09-23T01:41:14.267Z,99600.84
2022-09-23T01:43:50.851Z,99596.34
2022-09-23T01:46:27.917Z,99591.16
2022-09-23T01:49:02.190Z,99590.69
2022-09-23T01:51:34.823Z,99585.00
2022-09-23T01:54:10.202Z,99585.16
2022-09-23T01:56:41.843Z,99580.53
2022-09-23T01:59:14.875Z,99580.78
2022-09-23T02:01:51.440Z,99583.34
2022-09-23T02:04:23.904Z,99590.91
2022-09-23T02:06:58.163Z,99583.94
2022-09-23T02:09:31.212Z,99581.50
2022-09-23T02:12:05.986Z,99585.34
2022-09-23T02:14:39.847Z,99583.59
2022-09-23T02:17:13.107Z,99582.00
2022-09-23T02:19:47.929Z,99585.41
2022-09-23T02:22:20.514Z,99581.53
2022-09-23T02:24:49.986Z,99581.81
2022-09-23T02:27:25.871Z,99578.63
2022-09-23T02:29:58.725Z,99577.34
2022-09-23T02:32:35.669Z,99578.56
2022-09-23T02:35:13.339Z,99579.97
2022-09-23T02:37:48.690Z,99578.50
2022-09-23T02:40:23.796Z,99586.13
2022-09-23T02:43:00.799Z,99584.38
2022-09-23T02:45:28.808Z,99582.59
2022-09-23T02:48:03.638Z,99583.53
2022-09-23T02:50:32.900Z,99585.34
2022-09-23T02:53:01.896Z,99581.78
2022-09-23T02:55:32.485Z,99580.59
2022-09-23T02:58:02.881Z,99577.03
2022-09-23T03:00:45.537Z,99579.06
2022-09-23T03:03:31.310Z,99575.44
2022-09-23T03:06:00.793Z,99568.53
2022-09-23T03:08:42.972Z,99568.66
2022-09-23T03:11:13.675Z,99562.28
2022-09-23T03:13:56.222Z,99574.59
2022-09-23T03:16:32.154Z,99567.00
2022-09-23T03:19:13.482Z,99559.22
2022-09-23T03:21:46.549Z,99560.44
2022-09-23T03:24:16.722Z,99569.41
2022-09-23T03:26:47.868Z,99563.25
2022-09-23T03:29:17.980Z,99564.91
2022-09-23T03:31:46.644Z,99558.63
2022-09-23T03:34:19.223Z,99551.84
2022-09-23T03:36:53.404Z,99550.22
2022-09-23T03:39:36.503Z,99545.09
2022-09-23T03:42:08.679Z,99547.59
2022-09-23T03:44:39.669Z,99539.16
2022-09-23T03:47:07.847Z,99548.97
2022-09-23T03:49:39.690Z,99546.00
2022-09-23T03:52:07.947Z,99543.72
2022-09-23T03:54:36.039Z,99537.72
2022-09-23T03:57:04.629Z,99533.13
2022-09-23T03:59:33.120Z,99539.09
2022-09-23T04:02:01.915Z,99540.69
2022-09-23T04:04:32.546Z,99540.53
2022-09-23T04:07:01.901Z,99541.03
2022-09-23T04:09:29.820Z,99534.31
2022-09-23T04:11:57.755Z,99534.78
2022-09-23T04:14:25.848Z,99532.47
2022-09-23T04:16:53.826Z,99529.03
2022-09-23T04:19:21.835Z,99516.78
2022-09-23T04:21:49.921Z,99523.41
2022-09-23T04:24:19.315Z,99527.47
2022-09-23T04:26:47.278Z,99532.63
2022-09-23T04:29:15.384Z,99530.31
2022-09-23T04:31:43.315Z,99532.91
2022-09-23T04:34:11.437Z,99537.25
2022-09-23T04:36:39.705Z,99532.50
2022-09-23T04:39:07.665Z,99529.50
2022-09-23T04:41:37.224Z,99523.31
2022-09-23T04:44:06.086Z,99529.41
2022-09-23T04:46:34.619Z,99518.31
2022-09-23T04:49:04.318Z,99512.88
2022-09-23T04:51:32.273Z,99513.56
2022-09-23T04:54:02.923Z,99506.09
2022-09-23T04:56:32.924Z,99509.03
2022-09-23T04:59:02.772Z,99511.09
2022-09-23T05:01:34.481Z,99509.22
2022-09-23T05:04:05.223Z,99508.50
2022-09-23T05:06:35.020Z,99505.38
2022-09-23T05:09:03.675Z,99508.34
2022-09-23T05:11:32.371Z,99513.50
2022-09-23T05:14:00.473Z,99515.38
2022-09-23T05:16:29.955Z,99510.16
2022-09-23T05:18:58.101Z,99510.69
2022-09-23T05:21:29.146Z,99507.19
2022-09-23T05:24:00.435Z,99506.03
2022-09-23T05:26:30.403Z,99505.22
2022-09-23T05:28:58.872Z,99497.38
2022-09-23T05:31:30.025Z,99504.94
2022-09-23T05:33:59.675Z,99505.13
2022-09-23T05:36:28.694Z,99507.19
2022-09-23T05:38:57.894Z,99498.09
2022-09-23T05:41:27.550Z,99501.88
2022-09-23T05:43:57.260Z,99499.41
2022-09-23T05:46:27.937Z,99499.72
2022-09-23T05:49:02.190Z,99504.34
2022-09-23T05:51:31.839Z,99502.81
2022-09-23T05:54:02.928Z,99503.00
2022-09-23T05:56:32.043Z,99513.50
2022-09-23T05:59:01.707Z,99509.28
2022-09-23T06:01:33.616Z,99501.16
2022-09-23T06:04:04.872Z,99502.31
2022-09-23T06:06:34.796Z,99508.16
2022-09-23T06:09:03.405Z,99516.16
2022-09-23T06:11:32.209Z,99518.25
2022-09-23T06:14:02.441Z,99520.75
2022-09-23T06:16:32.448Z,99514.75
2022-09-23T06:19:05.861Z,99513.25
2022-09-23T06:21:37.746Z,99513.06
2022-09-23T06:24:07.203Z,99511.16
2022-09-23T06:26:35.672Z,99510.84
2022-09-23T06:29:04.603Z,99517.59
2022-09-23T06:31:32.983Z,99515.16
2022-09-23T06:34:12.564Z,99516.44
2022-09-23T06:36:45.050Z,99524.81
2022-09-23T06:39:13.922Z,99535.78
2022-09-23T06:41:41.931Z,99541.47
2022-09-23T06:44:09.887Z,99537.28
2022-09-23T06:46:37.940Z,99530.84
2022-09-23T06:49:05.897Z,99543.63
2022-09-23T06:51:33.851Z,99538.00
2022-09-23T06:54:03.787Z,99540.94
2022-09-23T06:56:36.291Z,99543.81
2022-09-23T06:59:07.457Z,99546.84
2022-09-23T07:01:35.744Z,99550.19
2022-09-23T07:04:03.888Z,99550.38
2022-09-23T07:06:31.784Z,99546.53
2022-09-23T07:09:01.094Z,99555.69
2022-09-23T07:11:30.514Z,99556.75
2022-09-23T07:13:58.487Z,99561.19
2022-09-23T07:16:26.801Z,99561.94
2022-09-23T07:18:54.718Z,99555.53
2022-09-23T07:21:22.656Z,99564.81
2022-09-23T07:23:51.964Z,99551.03
2022-09-23T07:26:21.176Z,99552.13
2022-09-23T07:28:55.415Z,99555.91
2022-09-23T07:31:35.948Z,99556.97
2022-09-23T07:34:06.730Z,99562.78
2022-09-23T07:36:37.677Z,99556.69
2022-09-23T07:39:05.948Z,99556.84
2022-09-23T07:41:35.477Z,99551.47
2022-09-23T07:44:06.178Z,99560.66
2022-09-23T07:46:37.242Z,99546.69
2022-09-23T07:49:06.012Z,99557.75
2022-09-23T07:51:36.884Z,99554.84
2022-09-23T07:54:07.948Z,99561.28
2022-09-23T07:56:37.339Z,99560.16
2022-09-23T07:59:09.012Z,99558.31
2022-09-23T08:01:39.874Z,99559.88
2022-09-23T08:04:10.340Z,99563.44
2022-09-23T08:06:41.822Z,99564.06
2022-09-23T08:09:10.576Z,99573.47
2022-09-23T08:11:39.442Z,99570.56
2022-09-23T08:14:08.857Z,99568.44
2022-09-23T08:16:37.166Z,99573.31
2022-09-23T08:21:39.409Z,99584.38
2022-09-23T08:24:08.130Z,99587.16
2022-09-23T08:26:36.544Z,99579.88
2022-09-23T08:29:04.860Z,99571.69
2022-09-23T08:31:34.203Z,99581.00
2022-09-23T08:34:02.375Z,99571.25
2022-09-23T08:36:30.432Z,99568.22
2022-09-23T08:38:58.379Z,99561.44
2022-09-23T08:41:36.079Z,99569.47
2022-09-23T08:44:09.916Z,99568.56
2022-09-23T08:46:46.516Z,99573.88
2022-09-23T08:49:24.884Z,99583.56
2022-09-23T08:51:55.843Z,99587.97
2022-09-23T08:54:26.539Z,99574.72
2022-09-23T08:56:58.620Z,99567.69
2022-09-23T08:59:36.872Z,99572.97
2022-09-23T09:02:16.147Z,99566.78
2022-09-23T09:04:46.441Z,99564.09
2022-09-23T09:10:16.640Z,99552.59
2022-09-23T09:12:47.625Z,99560.53
2022-09-23T09:15:20.124Z,99572.91
2022-09-23T09:18:01.305Z,99577.28
2022-09-23T09:20:39.307Z,99576.31
2022-09-23T09:23:21.504Z,99566.53
2022-09-23T09:25:51.941Z,99569.00
2022-09-23T09:28:25.856Z,99567.03
2022-09-23T09:30:57.138Z,99567.78
2022-09-23T09:33:33.878Z,99558.94
2022-09-23T09:36:11.359Z,99557.94
2022-09-23T09:38:39.532Z,99564.13
2022-09-23T09:41:15.603Z,99557.69
2022-09-23T09:43:48.571Z,99556.59
2022-09-23T09:46:34.184Z,99560.06
2022-09-23T09:49:10.490Z,99567.16
2022-09-23T09:51:39.678Z,99561.88
2022-09-23T09:54:18.720Z,99561.50
2022-09-23T09:56:50.353Z,99565.44
2022-09-23T09:59:23.490Z,99567.06
2022-09-23T10:02:11.461Z,99555.72
2022-09-23T10:04:41.787Z,99551.97
2022-09-23T10:07:14.007Z,99553.66
2022-09-23T10:09:48.997Z,99552.59
2022-09-23T10:12:19.196Z,99553.28
2022-09-23T10:14:50.576Z,99543.41
2022-09-23T10:17:22.179Z,99539.81
2022-09-23T10:20:00.353Z,99538.94
2022-09-23T10:22:34.719Z,99535.38
2022-09-23T10:25:07.897Z,99531.09
2022-09-23T10:27:38.905Z,99542.56
2022-09-23T10:30:21.689Z,99545.09
2022-09-23T10:32:51.170Z,99558.06
2022-09-23T10:35:22.583Z,99559.91
2022-09-23T10:37:52.699Z,99558.72
2022-09-23T10:40:57.302Z,99565.56
2022-09-23T10:43:46.706Z,99566.00
2022-09-23T10:46:37.601Z,99554.28
2022-09-23T10:49:22.743Z,99551.66
2022-09-23T10:52:02.909Z,99550.72
2022-09-23T10:54:46.392Z,99540.78
2022-09-23T10:57:40.538Z,99547.88
2022-09-23T11:00:23.240Z,99550.81
2022-09-23T11:03:27.776Z,99546.13
2022-09-23T11:06:06.536Z,99539.00
2022-09-23T11:09:06.446Z,99539.75
2022-09-23T11:11:44.820Z,99547.13
2022-09-23T11:14:38.836Z,99537.25
2022-09-23T11:17:27.079Z,99537.63
2022-09-23T11:20:32.623Z,99536.75
2022-09-23T11:23:22.156Z,99525.94
2022-09-23T11:26:00.296Z,99531.97
2022-09-23T11:29:06.812Z,99542.28
2022-09-23T11:31:42.406Z,99539.16
2022-09-23T11:34:26.468Z,99541.03
2022-09-23T11:36:58.976Z,99535.25
2022-09-23T11:39:30.632Z,99528.88
2022-09-23T11:42:02.932Z,99533.06
2022-09-23T11:44:35.346Z,99537.78
2022-09-23T11:47:10.079Z,99532.84
2022-09-23T11:49:42.179Z,99522.56
2022-09-23T11:52:13.712Z,99517.31
2022-09-23T11:54:47.143Z,99523.72
2022-09-23T11:57:35.331Z,99520.59
2022-09-23T12:00:17.972Z,99514.75
2022-09-23T12:03:05.529Z,99520.19
2022-09-23T12:05:39.335Z,99515.91
2022-09-23T12:08:18.750Z,99516.72
2022-09-23T12:10:53.870Z,99518.16
2022-09-23T12:13:31.784Z,99507.72
2022-09-23T12:16:32.261Z,99506.84
2022-09-23T12:19:13.276Z,99507.34
2022-09-23T12:21:56.573Z,99503.41
2022-09-23T12:24:39.306Z,99504.19
2022-09-23T12:27:11.202Z,99510.88
2022-09-23T12:29:42.446Z,99508.06
2022-09-23T12:32:18.614Z,99510.56
2022-09-23T12:34:52.080Z,99506.72
2022-09-23T12:37:28.986Z,99493.91
2022-09-23T12:40:03.028Z,99485.63
2022-09-23T12:42:31.476Z,99493.38
2022-09-23T12:45:20.388Z,99487.97
2022-09-23T12:47:48.507Z,99497.78
2022-09-23T12:50:48.657Z,99503.00
2022-09-23T12:53:59.772Z,99508.72
2022-09-23T12:56:43.909Z,99507.88
2022-09-23T12:59:25.212Z,99505.63
2022-09-23T13:01:55.587Z,99499.22
2022-09-23T13:04:54.396Z,99497.63
2022-09-23T13:07:27.547Z,99495.28
2022-09-23T13:10:02.853Z,99501.28
2022-09-23T13:12:35.520Z,99492.56
2022-09-23T13:15:06.402Z,99503.53
2022-09-23T13:17:38.958Z,99504.81
2022-09-23T13:20:29.166Z,99512.03
2022-09-23T13:23:22.288Z,99506.69
2022-09-23T13:25:52.569Z,99501.16
2022-09-23T13:28:31.013Z,99490.72
2022-09-23T13:30:59.467Z,99490.56
2022-09-23T13:33:38.820Z,99486.47
2022-09-23T13:36:13.266Z,99508.56
2022-09-23T13:38:42.184Z,99494.97
2022-09-23T13:41:16.222Z,99498.25
2022-09-23T13:43:46.050Z,99499.56
2022-09-23T13:46:18.303Z,99491.50
2022-09-23T13:48:51.652Z,99503.50
2022-09-23T13:51:30.495Z,99488.63
2022-09-23T13:54:00.314Z,99485.31
2022-09-23T13:56:30.312Z,99490.56
2022-09-23T13:59:23.682Z,99498.88
2022-09-23T14:01:51.718Z,99497.91
2022-09-23T14:04:26.021Z,99497.91
2022-09-23T14:06:54.424Z,99499.16
2022-09-23T14:09:27.340Z,99493.72
2022-09-23T14:11:57.285Z,99488.53
2022-09-23T14:14:26.354Z,99486.94
2022-09-23T14:16:56.107Z,99488.31
2022-09-23T14:19:27.283Z,99497.06
2022-09-23T14:21:56.429Z,99484.75
2022-09-23T14:24:27.115Z,99486.50
2022-09-23T14:26:58.164Z,99495.19
2022-09-23T14:29:31.676Z,99485.66
2022-09-23T14:32:04.242Z,99474.97
2022-09-23T14:34:48.207Z,99466.69
2022-09-23T14:37:44.944Z,99469.66
2022-09-23T14:40:16.734Z,99470.66
2022-09-23T14:42:47.708Z,99469.84
2022-09-23T14:45:20.221Z,99472.53
2022-09-23T14:47:51.256Z,99468.19
2022-09-23T14:50:39.714Z,99461.53
2022-09-23T14:53:33.962Z,99454.50
2022-09-23T14:56:20.577Z,99443.09
2022-09-23T14:58:56.646Z,99442.28
2022-09-23T15:01:39.150Z,99438.91
2022-09-23T15:04:32.606Z,99442.31
2022-09-23T15:07:06.186Z,99445.09
2022-09-23T15:09:38.888Z,99442.91
2022-09-23T15:12:08.713Z,99442.69
2022-09-23T15:14:40.697Z,99441.00
2022-09-23T15:17:21.630Z,99429.22
2022-09-23T15:19:55.241Z,99438.53
2022-09-23T15:22:25.991Z,99420.19
2022-09-23T15:24:55.034Z,99420.13
2022-09-23T15:27:30.918Z,99436.94
2022-09-23T15:30:17.180Z,99429.06
2022-09-23T15:32:45.253Z,99437.94
2022-09-23T15:35:15.950Z,99438.50
2022-09-23T15:37:46.884Z,99432.25
2022-09-23T15:40:20.986Z,99428.06
2022-09-23T15:42:51.582Z,99427.66
2022-09-23T15:45:22.183Z,99438.03
2022-09-23T15:47:52.366Z,99441.63
2022-09-23T15:50:20.880Z,99435.34
2022-09-23T15:52:50.283Z,99432.13
2022-09-23T15:55:21.322Z,99437.28
2022-09-23T15:57:49.305Z,99438.03
2022-09-23T16:00:17.521Z,99433.88
2022-09-23T16:02:47.468Z,99429.50
2022-09-23T16:05:26.790Z,99440.97
2022-09-23T16:07:56.230Z,99440.03
2022-09-23T16:10:24.486Z,99448.81
2022-09-23T16:12:53.576Z,99450.75
2022-09-23T16:15:23.384Z,99450.81
2022-09-23T16:17:51.889Z,99453.31
2022-09-23T16:20:20.117Z,99456.13
2022-09-23T16:22:55.410Z,99457.13
2022-09-23T16:25:28.208Z,99469.53
2022-09-23T16:27:57.312Z,99479.25
2022-09-23T16:30:26.054Z,99488.16
2022-09-23T16:32:54.476Z,99500.59
2022-09-23T16:35:23.197Z,99500.63
2022-09-23T16:37:52.845Z,99513.84
2022-09-23T16:40:23.515Z,99526.25
2022-09-23T16:42:55.080Z,99522.72
2022-09-23T16:45:24.161Z,99527.09
2022-09-23T16:47:54.362Z,99528.00
2022-09-23T16:50:24.434Z,99522.69
2022-09-23T16:52:56.182Z,99527.06
2022-09-23T16:55:25.784Z,99539.38
2022-09-23T16:57:55.508Z,99551.66
2022-09-23T17:00:41.480Z,99555.09
2022-09-23T17:03:30.159Z,99556.72
2022-09-23T17:05:58.732Z,99561.16
2022-09-23T17:08:26.631Z,99564.66
2022-09-23T17:10:59.710Z,99577.72
2022-09-23T17:13:30.058Z,99562.69
2022-09-23T17:15:58.078Z,99582.09
2022-09-23T17:18:26.167Z,99586.59
2022-09-23T17:21:05.153Z,99581.34
2022-09-23T17:23:35.203Z,99576.16
2022-09-23T17:26:05.466Z,99581.44
2022-09-23T17:28:34.810Z,99585.94
2022-09-23T17:31:06.414Z,99585.97
2022-09-23T17:33:37.270Z,99591.22
2022-09-23T17:36:08.902Z,99609.69
2022-09-23T17:38:39.266Z,99600.75
2022-09-23T17:41:08.423Z,99589.25
2022-09-23T17:43:38.497Z,99572.44
2022-09-23T17:46:08.366Z,99571.56
2022-09-23T17:48:38.153Z,99551.84
2022-09-23T17:51:08.359Z,99551.50
2022-09-23T17:53:38.734Z,99549.38
2022-09-23T17:56:08.806Z,99545.03
2022-09-23T17:58:39.088Z,99544.38
2022-09-23T18:01:10.880Z,99545.13
2022-09-23T18:03:39.410Z,99543.38
2022-09-23T18:06:13.175Z,99542.41
2022-09-23T18:08:41.906Z,99543.63
2022-09-23T18:11:15.357Z,99538.25
2022-09-23T18:13:49.277Z,99539.78
2022-09-23T18:16:17.710Z,99542.50
2022-09-23T18:18:50.585Z,99542.59
2022-09-23T18:21:19.216Z,99542.94
2022-09-23T18:23:47.354Z,99544.47
2022-09-23T18:26:16.604Z,99537.47
2022-09-23T18:28:45.945Z,99542.25
2022-09-23T18:31:14.003Z,99536.25
2022-09-23T18:33:42.366Z,99536.19
2022-09-23T18:36:10.776Z,99535.16
2022-09-23T18:38:38.748Z,99539.00
2022-09-23T18:41:07.255Z,99531.13
2022-09-23T18:43:40.702Z,99527.88
2022-09-23T18:46:12.889Z,99546.66
2022-09-23T18:48:59.014Z,99560.81
2022-09-23T18:51:29.603Z,99564.34
2022-09-23T18:53:58.690Z,99579.28
2022-09-23T18:56:29.722Z,99575.75
2022-09-23T18:58:57.834Z,99576.53
2022-09-23T19:01:27.524Z,99572.72
2022-09-23T19:03:56.613Z,99574.41
2022-09-23T19:06:25.450Z,99580.53
2022-09-23T19:08:55.668Z,99580.50
2022-09-23T19:11:24.217Z,99580.84
2022-09-23T19:13:55.425Z,99591.38
2022-09-23T19:16:24.046Z,99582.72
2022-09-23T19:18:54.416Z,99582.78
2022-09-23T19:21:23.883Z,99594.28
2022-09-23T19:23:54.043Z,99594.47
2022-09-23T19:26:24.784Z,99593.72
2022-09-23T19:28:55.028Z,99595.50
2022-09-23T19:31:25.503Z,99606.88
2022-09-23T19:33:57.044Z,99606.66
2022-09-23T19:36:26.832Z,99607.47
2022-09-23T19:38:56.166Z,99602.88
2022-09-23T19:41:24.747Z,99598.47
2022-09-23T19:43:58.648Z,99603.63
2022-09-23T19:46:26.897Z,99595.88
2022-09-23T19:48:56.190Z,99599.28
2022-09-23T19:51:24.262Z,99596.63
2022-09-23T19:53:52.198Z,99604.66
2022-09-23T19:56:20.899Z,99600.38
2022-09-23T19:58:52.614Z,99603.16
2022-09-23T20:01:20.947Z,99598.75
2022-09-23T20:03:49.527Z,99597.91
2022-09-23T20:06:19.196Z,99596.09
2022-09-23T20:08:47.959Z,99592.47
2022-09-23T20:11:18.276Z,99594.13
2022-09-23T20:13:48.588Z,99592.41
2022-09-23T20:16:18.400Z,99586.31
2022-09-23T20:18:47.350Z,99584.66
2022-09-23T20:21:16.615Z,99588.25
2022-09-23T20:23:45.906Z,99590.88
2022-09-23T20:26:32.979Z,99577.75
2022-09-23T20:29:01.649Z,99590.00
2022-09-23T20:31:30.211Z,99595.22
2022-09-23T20:33:59.117Z,99595.00
2022-09-23T20:36:27.992Z,99595.94
2022-09-23T20:38:59.691Z,99589.94
2022-09-23T20:41:28.259Z,99593.56
2022-09-23T20:43:59.417Z,99596.97
2022-09-23T20:46:28.628Z,99590.59
2022-09-23T20:48:57.028Z,99588.22
2022-09-23T20:51:26.318Z,99591.81
2022-09-23T20:53:54.345Z,99590.91
2022-09-23T20:56:25.328Z,99590.06
2022-09-23T20:58:54.278Z,99591.84
2022-09-23T21:01:22.670Z,99590.88
2022-09-23T21:03:52.396Z,99590.03
2022-09-23T21:06:20.620Z,99591.81
2022-09-23T21:08:48.496Z,99598.94
2022-09-23T21:11:18.038Z,99590.97
2022-09-23T21:13:49.246Z,99599.59
2022-09-23T21:16:18.294Z,99604.13
2022-09-23T21:18:48.105Z,99605.00
2022-09-23T21:21:19.226Z,99605.94
2022-09-23T21:23:47.862Z,99606.75
2022-09-23T21:26:20.259Z,99598.84
2022-09-23T21:28:51.012Z,99605.16
2022-09-23T21:31:24.042Z,99599.94
2022-09-23T21:33:55.941Z,99595.38
2022-09-23T21:36:25.228Z,99600.75
2022-09-23T21:38:53.375Z,99597.97
2022-09-23T21:41:21.700Z,99605.13
2022-09-23T21:43:51.250Z,99601.69
2022-09-23T21:46:21.193Z,99601.69
2022-09-23T21:48:53.353Z,99593.75
2022-09-23T21:51:24.169Z,99591.94
2022-09-23T21:53:54.537Z,99592.91
2022-09-23T21:56:24.049Z,99590.22
2022-09-23T21:58:54.964Z,99594.50
2022-09-23T22:01:24.786Z,99586.06
2022-09-23T22:03:54.392Z,99588.03
2022-09-23T22:06:24.192Z,99582.88
2022-09-23T22:08:54.537Z,99579.88
2022-09-23T22:11:44.515Z,99568.88
2022-09-23T22:14:15.400Z,99560.19
2022-09-23T22:16:43.902Z,99576.25
2022-09-23T22:19:13.676Z,99577.13
2022-09-23T22:21:43.089Z,99572.75
2022-09-23T22:24:12.630Z,99565.47
2022-09-23T22:26:42.377Z,99562.56
2022-09-23T22:29:31.197Z,99557.59
2022-09-23T22:32:17.452Z,99561.25
2022-09-23T22:34:50.180Z,99554.19
2022-09-23T22:37:21.619Z,99562.28
2022-09-23T22:39:49.558Z,99557.31
2022-09-23T22:42:18.119Z,99556.38
2022-09-23T22:44:47.419Z,99558.16
2022-09-23T22:47:15.534Z,99567.88
2022-09-23T22:49:43.421Z,99556.59
2022-09-23T22:52:12.497Z,99565.94
2022-09-23T22:54:40.412Z,99564.94
2022-09-23T22:57:09.440Z,99557.28
2022-09-23T22:59:38.340Z,99562.78
2022-09-23T23:02:07.709Z,99564.03
2022-09-23T23:04:37.199Z,99560.16
2022-09-23T23:07:06.975Z,99558.06
2022-09-23T23:09:35.396Z,99560.91
2022-09-23T23:12:03.946Z,99565.59
2022-09-23T23:14:32.249Z,99556.97
2022-09-23T23:17:00.519Z,99561.28
2022-09-23T23:19:29.811Z,99550.72
2022-09-23T23:21:57.741Z,99547.31
2022-09-23T23:24:25.896Z,99544.50
2022-09-23T23:26:54.100Z,99541.03
2022-09-23T23:29:23.310Z,99541.56
2022-09-23T23:31:51.917Z,99539.19
2022-09-23T23:34:22.950Z,99527.22
2022-09-23T23:36:55.133Z,99522.25
2022-09-23T23:39:24.775Z,99520.19
2022-09-23T23:41:55.266Z,99509.13
2022-09-23T23:44:24.718Z,99509.53
2022-09-23T23:46:52.838Z,99506.13
2022-09-23T23:49:21.526Z,99503.19
2022-09-23T23:51:49.535Z,99500.81
2022-09-23T23:54:18.831Z,99493.44
2022-09-23T23:56:46.912Z,99492.00
2022-09-23T23:59:14.801Z,99486.56
